• Join FlightAware (Why Join?)
  • Login
  • US Flag 
06:21AM EDT


 

Airport Tracker/Info


-or-


 

Live Flight TrackerFlight Track Log ✈ ASQ5955 ✈ 19-Jun-2013 ✈ KDEN - KMSN

Flight Track Log - Related Links

Times and Time Zones

All times are in EDT time to prevent confusion due to time zone crossing. See the ASQ5955 flight status page for this flight to view local times or setup timezone preferences in your user account.

Time Position Orientation Groundspeed Altitude Reporting Facility
EDT Latitude Longitude Course Direction KTS MPH feet Rate Location/Type
03:18PM 39.8167 -104.6333 66° East 179 206 6,400  Level Denver TRACON
03:19PM 39.8167 -104.5667 90° East 225 259 7,900 1,320 Climbing Denver TRACON
03:20PM 39.8167 -104.4833 90° East 277 319 9,000 1,320 Climbing Denver TRACON
03:21PM 39.8167 -104.3667 90° East 302 348 10,500 1,380 Climbing Denver TRACON
03:22PM 39.9534 -104.0762 79° East  Level FlightAware Approximate
03:22PM 39.8500 -104.2500 70° East 345 397 11,800  Level Denver TRACON
03:23PM 39.9778 -103.9279 75° East  Level FlightAware Approximate
03:24PM 40.0113 -103.7828 66° East  Level FlightAware Approximate
03:24PM 39.9044 -104.1108 63° Northeast 356 410 13,900  Level Denver Center
03:25PM 39.9556 -103.9608 66° East 366 421 15,700 1,260 Climbing Denver Center
03:26PM 40.0014 -103.8217 67° East 390 449 16,800 840 Climbing Denver Center
03:27PM 40.0364 -103.6753 73° East 384 442 17,900 1,080 Climbing Denver Center
03:28PM 40.0697 -103.4681 78° East 418 481 19,400 1,200 Climbing Denver Center
03:29PM 40.0944 -103.3175 78° East 424 488 20,400 960 Climbing Denver Center
03:30PM 40.1186 -103.1633 78° East 431 496 21,500 960 Climbing Denver Center
03:31PM 40.1444 -103.0064 78° East 440 506 22,500 960 Climbing Denver Center
03:33PM 40.1689 -102.8489 78° East 443 510 23,500 960 Climbing Denver Center
03:34PM 40.1933 -102.6914 78° East 443 510 24,500 1,020 Climbing Denver Center
03:35PM 40.2222 -102.5028 79° East 442 509 25,700 1,020 Climbing Denver Center
03:36PM 40.2458 -102.3450 79° East 443 510 26,700 960 Climbing Denver Center
03:37PM 40.2708 -102.1875 78° East 443 510 27,700 960 Climbing Denver Center
03:38PM 40.2956 -102.0197 79° East 442 509 28,800 900 Climbing Denver Center
03:39PM 40.3183 -101.8689 79° East 441 507 29,800 960 Climbing Denver Center
03:40PM 40.3475 -101.6656 79° East 445 512 31,100 960 Climbing Denver Center
03:41PM 40.3661 -101.5394 79° East 444 511 31,900 960 Climbing Denver Center
03:42PM 40.4014 -101.3353 77° East 450 518 33,200 1,020 Climbing Denver Center
03:43PM 40.4322 -101.1853 75° East 448 516 34,100 840 Climbing Denver Center
03:44PM 40.4678 -101.0114 75° East 445 512 35,000 420 Climbing Denver Center
03:45PM 40.4928 -100.8850 75° East 449 517 35,000  Level Denver Center
03:46PM 40.5361 -100.6747 75° East 470 541 35,000  Level Denver Center
03:47PM 40.5681 -100.5139 75° East 479 551 35,000  Level Denver Center
03:48PM 40.6050 -100.3258 75° East 480 552 35,000  Level Denver Center
03:49PM 40.6375 -100.1639 75° East 480 552 35,000  Level Denver Center
03:50PM 40.6742 -99.9767 75° East 477 549 35,000  Level Denver Center
03:51PM 40.7097 -99.7914 76° East 479 551 35,000  Level Denver Center
03:52PM 40.7422 -99.6231 76° East 476 548 35,000  Level Denver Center
03:53PM 40.7558 -99.5569 75° East 477 549 35,000  Level Minneapolis Center
03:54PM 40.7942 -99.3511 76° East 482 555 35,000  Level Minneapolis Center
03:55PM 40.8261 -99.1803 76° East 482 555 35,000  Level Minneapolis Center
03:56PM 40.8581 -99.0042 76° East 481 554 35,000  Level Minneapolis Center
03:57PM 40.8886 -98.8311 77° East 483 556 35,000  Level Minneapolis Center
03:58PM 40.9139 -98.6922 76° East 485 558 35,000  Level Minneapolis Center
03:59PM 40.9519 -98.4850 76° East 485 558 35,000  Level Minneapolis Center
04:00PM 40.9889 -98.2939 76° East 482 555 35,000  Level Minneapolis Center
04:01PM 41.0450 -98.0972 69° East 479 551 35,000  Level Minneapolis Center
04:02PM 41.0925 -97.9336 69° East 479 551 35,000  Level Minneapolis Center
04:03PM 41.1394 -97.7683 69° East 479 551 35,000  Level Minneapolis Center
04:04PM 41.1864 -97.6022 69° East 481 554 35,000  Level Minneapolis Center
04:05PM 41.2425 -97.4022 69° East 482 555 35,000  Level Minneapolis Center
04:07PM 41.2850 -97.2536 69° East 480 552 35,000  Level Minneapolis Center
04:08PM 41.3308 -97.0867 70° East 479 551 35,000  Level Minneapolis Center
04:09PM 41.3847 -96.8886 70° East 476 548 35,000  Level Minneapolis Center
04:10PM 41.4297 -96.7233 70° East 474 545 35,000  Level Minneapolis Center
04:11PM 41.4750 -96.5589 70° East 470 541 35,000  Level Minneapolis Center
04:12PM 41.5194 -96.3931 70° East 471 542 35,000  Level Minneapolis Center
04:13PM 41.5658 -96.2139 71° East 472 543 35,000  Level Minneapolis Center
04:14PM 41.6097 -96.0483 70° East 473 544 35,000  Level Minneapolis Center
04:15PM 41.6539 -95.8836 70° East 472 543 35,000  Level Minneapolis Center
04:16PM 41.6958 -95.7228 71° East 472 543 35,000  Level Minneapolis Center
04:17PM 41.7400 -95.5553 70° East 474 545 35,000  Level Minneapolis Center
04:18PM 41.7833 -95.3861 71° East 477 549 35,000  Level Minneapolis Center
04:19PM 41.8347 -95.1839 71° East 478 550 35,000  Level Minneapolis Center
04:20PM 41.8781 -95.0131 71° East 480 552 35,000  Level Minneapolis Center
04:21PM 41.9206 -94.8411 72° East 485 558 35,000  Level Minneapolis Center
04:22PM 41.9633 -94.6711 71° East 481 554 35,000  Level Minneapolis Center
04:23PM 42.0044 -94.5011 72° East 479 551 35,000  Level Minneapolis Center
04:24PM 42.0469 -94.3314 71° East 479 551 35,000  Level Minneapolis Center
04:25PM 42.0975 -94.1269 72° East 478 550 35,000  Level Minneapolis Center
04:26PM 42.1389 -93.9567 72° East 478 550 35,000  Level Minneapolis Center
04:27PM 42.1797 -93.7858 72° East 480 552 35,000  Level Minneapolis Center
04:28PM 42.2208 -93.6131 72° East 485 558 35,000  Level Minneapolis Center
04:29PM 42.2619 -93.4439 72° East 482 555 35,000  Level Minneapolis Center
04:30PM 42.3022 -93.2711 72° East 486 559 35,000 -120 Level Minneapolis Center
04:31PM 42.3511 -93.0639 72° East 489 563 34,800 -600 Descending Minneapolis Center
04:32PM 42.3906 -92.8922 73° East 485 558 33,800 -1,020 Descending Minneapolis Center
04:33PM 42.4142 -92.7869 73° East 484 557 33,200 -1,020 Descending Chicago Center
04:34PM 42.4536 -92.6131 73° East 486 559 32,200 -1,020 Descending Chicago Center
04:35PM 42.4936 -92.4406 72° East 485 558 31,200 -1,260 Descending Chicago Center
04:36PM 42.5383 -92.2331 74° East 483 556 29,700 -1,500 Descending Chicago Center
04:37PM 42.5778 -92.0619 73° East 482 555 28,200 -1,500 Descending Chicago Center
04:38PM 42.6158 -91.8881 73° East 487 560 26,700 -1,440 Descending Chicago Center
04:39PM 42.6533 -91.7172 73° East 481 554 25,300 -1,320 Descending Chicago Center
04:40PM 42.6958 -91.5225 73° East 465 535 24,000 -1,380 Descending Chicago Center
04:41PM 42.7311 -91.3622 73° East 458 527 22,500 -1,500 Descending Chicago Center
04:42PM 42.7658 -91.1989 74° East 456 525 21,000 -1,320 Descending Chicago Center
04:43PM 42.8058 -91.0111 74° East 438 504 19,800 -1,020 Descending Chicago Center
04:44PM 42.8383 -90.8589 74° East 427 491 19,000 -840 Descending Chicago Center
04:45PM 42.8700 -90.7033 74° East 431 496 18,100 -1,200 Descending Chicago Center
04:46PM 42.9019 -90.5519 74° East 421 484 16,600 -1,440 Descending Chicago Center
04:47PM 42.9328 -90.4036 74° East 411 473 15,200 -1,380 Descending Chicago Center
04:48PM 42.9675 -90.2286 75° East 404 465 13,800 -1,260 Descending Chicago Center
04:50PM 42.9961 -90.0853 75° East 396 456 12,700 -1,200 Descending Chicago Center
04:51PM 43.0242 -89.9497 74° East 375 432 11,400 -1,260 Descending Chicago Center
04:52PM 43.0469 -89.8339 75° East 326 375 10,100 -1,620 Descending Chicago Center
04:53PM 43.0711 -89.7072 75° East 298 343 8,100 -1,800 Descending Chicago Center
04:54PM 43.1125 -89.6150 58° Northeast 284 327 6,400 -1,740 Descending Chicago Center
04:55PM 43.1497 -89.5267 60° Northeast 274 315 4,600 -1,680 Descending Chicago Center
04:56PM 43.1861 -89.4425 59° Northeast 263 303 3,000 -1,560 Descending Chicago Center